• Join FlightAware (Why Join?)
  • Login
  • US Flag 
Trick or treat! (Boo!!) 
01:00AM EDT


 

Airport Tracker/Info


-or-


 

Live Flight TrackerFlight Track Log ✈ UPS1337 ✈ 24-Feb-2014 ✈ KPIE - KSDF

Flight Track Log - Related Links

Times and Time Zones

All times are in EST time to prevent confusion due to time zone crossing. See the UPS1337 flight status page for this flight to view local times or setup timezone preferences in your user account.

Time Position Orientation Groundspeed Altitude Reporting Facility
EST Latitude Longitude Course Direction KTS MPH feet Rate Location/Type
09:41PM 27.9167 -82.6833 12° North 162 186 600  Level Tampa TRACON
09:42PM 27.9833 -82.6667 12° North 217 250 4,500 2,760 Climbing Tampa TRACON
09:43PM 28.0500 -82.6500 12° North 276 318 7,300 2,160 Climbing Tampa TRACON
09:45PM 28.1997 -82.6569 358° North 301 346 10,700 2,040 Climbing Jacksonville Center
09:46PM 28.3042 -82.6592 359° North 334 384 13,100 2,580 Climbing Jacksonville Center
09:47PM 28.4189 -82.6589 360° North 373 429 15,900 2,700 Climbing Jacksonville Center
09:48PM 28.5317 -82.6658 357° North 396 456 18,500 2,460 Climbing Jacksonville Center
09:49PM 28.6464 -82.7033 344° North 411 473 20,900 2,220 Climbing Jacksonville Center
09:50PM 28.7592 -82.7433 343° North 416 479 23,000 2,100 Climbing Jacksonville Center
09:51PM 28.8825 -82.7836 344° North 428 493 25,100 1,980 Climbing Jacksonville Center
09:52PM 29.0036 -82.8239 344° North 442 509 27,000 1,800 Climbing Jacksonville Center
09:53PM 29.1267 -82.8642 344° North 452 520 28,800 1,860 Climbing Jacksonville Center
09:54PM 29.2519 -82.9044 344° North 458 527 30,800 1,800 Climbing Jacksonville Center
09:55PM 29.3731 -82.9450 344° North 458 527 32,500 1,500 Climbing Jacksonville Center
09:56PM 29.4961 -82.9881 343° North 458 527 33,900 720 Climbing Jacksonville Center
09:57PM 29.6089 -83.0264 344° North 463 533 34,000  Climbing Jacksonville Center
09:58PM 29.7297 -83.0672 344° North 457 526 34,000  Level Jacksonville Center
09:59PM 29.8508 -83.1081 344° North 457 526 34,000  Level Jacksonville Center
10:00PM 29.9697 -83.1492 343° North 452 520 34,000  Level Jacksonville Center
10:01PM 30.0908 -83.1878 345° North 452 520 34,000 -60 Level Jacksonville Center
10:02PM 30.2117 -83.2267 344° North 452 520 33,900  Descending Jacksonville Center
10:03PM 30.3286 -83.2778 339° North 452 520 34,000  Climbing Jacksonville Center
10:04PM 30.4306 -83.3528 328° Northwest 433 498 34,000  Level Jacksonville Center
10:05PM 30.5328 -83.4231 329° Northwest 433 498 34,000  Level Jacksonville Center
10:06PM 30.6325 -83.4986 327° Northwest 433 498 34,000  Level Jacksonville Center
10:07PM 30.7533 -83.5406 343° North 433 498 34,000  Level Jacksonville Center
10:08PM 30.8828 -83.5778 346° North 434 499 34,000  Level Jacksonville Center
10:09PM 31.0058 -83.6125 346° North 434 499 34,000  Level Jacksonville Center
10:10PM 31.1267 -83.6425 348° North 434 499 34,000  Level Jacksonville Center
10:11PM 31.2475 -83.6775 346° North 439 505 34,000  Level Jacksonville Center
10:13PM 31.4372 -83.7322 346° North 446 513 34,000  Level Atlanta Center
10:14PM 31.5458 -83.7611 347° North 453 521 34,000  Level Atlanta Center
10:15PM 31.6775 -83.7925 349° North 447 514 34,000  Level Atlanta Center
10:16PM 31.7986 -83.8264 347° North 442 509 34,000  Level Atlanta Center
10:19PM 32.1703 -83.9308 354° North 449 517 34,000  Level Atlanta Center
10:20PM 32.2914 -83.9653 346° North 449 517 34,000  Level Atlanta Center
10:21PM 32.4103 -83.9994 346° North 449 517 34,000  Level Atlanta Center
10:22PM 32.5314 -84.0314 347° North 444 511 34,000  Level Atlanta Center
10:23PM 32.6544 -84.0683 346° North 444 511 34,000  Level Atlanta Center
10:24PM 32.7736 -84.1006 347° North 444 511 34,000  Level Atlanta Center
10:25PM 32.8967 -84.1378 346° North 444 511 34,000  Level Atlanta Center
10:26PM 33.0178 -84.1750 346° North 449 517 34,000  Level Atlanta Center
10:27PM 33.1428 -84.2100 347° North 455 524 34,000  Level Atlanta Center
10:28PM 33.2639 -84.2425 347° North 448 516 34,000  Level Atlanta Center
10:29PM 33.3869 -84.2750 348° North 448 516 34,000  Level Atlanta Center
10:30PM 33.5100 -84.3128 346° North 448 516 34,000  Level Atlanta Center
10:31PM 33.6289 -84.3456 347° North 445 512 34,000  Level Atlanta Center
10:32PM 33.7519 -84.3811 346° North 440 506 34,000  Level Atlanta Center
10:33PM 33.8772 -84.4192 346° North 446 513 34,000  Level Atlanta Center
10:34PM 33.9981 -84.4522 347° North 446 513 34,000  Level Atlanta Center
10:35PM 34.1211 -84.4881 346° North 453 521 34,000  Level Atlanta Center
10:36PM 34.2503 -84.5239 347° North 461 531 34,000  Level Atlanta Center
10:37PM 34.3733 -84.5597 346° North 454 522 34,000  Level Atlanta Center
10:38PM 34.4922 -84.5933 347° North 448 516 34,000  Level Atlanta Center
10:39PM 34.6194 -84.6294 347° North 455 524 34,000  Level Atlanta Center
10:40PM 34.7214 -84.6656 344° North 442 509 34,000  Level Atlanta Center
10:41PM 34.8444 -84.7019 346° North 442 509 34,000  Level Atlanta Center
10:42PM 34.9653 -84.7383 346° North 442 509 34,000  Level Atlanta Center
10:43PM 35.0839 -84.7722 347° North 442 509 34,000  Level Atlanta Center
10:44PM 35.2172 -84.8039 349° North 436 502 34,000  Level Atlanta Center
10:45PM 35.3425 -84.8103 358° North 442 509 34,000  Level Atlanta Center
10:46PM 35.4697 -84.8164 358° North 448 516 34,000  Level Atlanta Center
10:47PM 35.5969 -84.8253 357° North 448 516 34,000 -300 Level Atlanta Center
10:48PM 35.7117 -84.8317 357° North 453 521 33,500 -840 Descending Atlanta Center
10:50PM 35.9883 -84.8469 357° North 459 528 31,400 -1,020 Descending Indianapolis Center
10:51PM 36.1133 -84.8547 357° North 456 525 30,400 -720 Descending Indianapolis Center
10:52PM 36.2411 -84.8631 357° North 456 525 30,000 -240 Descending Indianapolis Center
10:53PM 36.3925 -84.8728 357° North 456 525 30,000 -1,020 Level Indianapolis Center
10:54PM 36.5150 -84.8800 357° North 447 514 28,000 -2,220 Descending Indianapolis Center
10:55PM 36.6303 -84.8186 23° Northeast 456 525 25,600 -1,980 Descending Indianapolis Center
10:56PM 36.7411 -84.7708 19° North 429 494 24,000 -840 Descending Indianapolis Center
10:57PM 36.8517 -84.7528 North 404 465 24,000  Level Indianapolis Center
10:58PM 36.9619 -84.7375 North 403 464 24,000  Level Indianapolis Center
10:59PM 37.0703 -84.7092 12° North 405 466 24,000 -120 Level Indianapolis Center
11:00PM 37.1825 -84.6658 17° North 416 479 23,800 -1,140 Descending Indianapolis Center
11:01PM 37.2894 -84.6258 17° North 408 470 21,700 -2,340 Descending Indianapolis Center
11:02PM 37.4117 -84.5800 17° North 398 458 19,100 -1,920 Descending Indianapolis Center
11:03PM 37.5169 -84.5428 16° North 396 456 17,800 -1,920 Descending Indianapolis Center
11:04PM 37.6094 -84.5497 357° North 352 405 15,300 -1,980 Descending Indianapolis Center
11:05PM 37.6353 -84.6400 290° West 295 339 13,800 -1,380 Descending Indianapolis Center
11:06PM 37.6403 -84.7242 274° West 253 291 12,500 -1,380 Descending Indianapolis Center
11:07PM 37.6456 -84.8069 275° West 243 280 11,000 -900 Descending Indianapolis Center
11:08PM 37.6497 -84.8872 274° West 235 270 10,700 -540 Descending Indianapolis Center
11:09PM 37.6558 -84.9675 276° West 231 266 10,000 -360 Descending Indianapolis Center
11:10PM 37.7069 -85.0289 316° Northwest 244 281 10,000 -300 Level Indianapolis Center
11:11PM 37.7544 -85.0908 314° West 245 282 9,500 -1,080 Descending Indianapolis Center
11:12PM 37.7822 -85.1656 295° West 236 272 7,800 -1,320 Descending Indianapolis Center
11:13PM 37.8092 -85.2439 294° West 240 276 6,800 -960 Descending Indianapolis Center
11:14PM 37.8389 -85.3264 295° West 241 277 5,900 -900 Descending Indianapolis Center
11:15PM 37.8689 -85.4053 296° West 245 282 5,000 -900 Descending Indianapolis Center
11:16PM 37.8981 -85.4881 294° West 251 289 4,100 -720 Descending Indianapolis Center
11:17PM 37.9267 -85.5656 295° West 253 291 3,600 -600 Descending Indianapolis Center
11:18PM 37.9736 -85.6372 310° West 250 288 3,000 -600 Descending Indianapolis Center
11:19PM 38.0194 -85.6906 317° Northwest 223 257 2,400 -300 Descending Indianapolis Center
11:20PM 38.0636 -85.7047 346° North 191 220 2,400 -60 Level Indianapolis Center
11:22PM 38.1003 -85.7217 340° North 183 211 2,300 -120 Descending Indianapolis Center
11:23PM 38.1741 -85.7365 345° North  Level Estimated
11:30PM 38.1741 -85.7365 208° Southwest  Level Estimated
11:31PM 38.1741 -85.7365 208° Southwest  Level Estimated